sensor_id;sensor_type;location;lat;lon;timestamp;P1;durP1;ratioP1;P2;durP2;ratioP2
67378;SDS011;54262;44.642;-0.974;2023-12-07T00:01:07;3.88;;;3.58;;
67378;SDS011;54262;44.642;-0.974;2023-12-07T00:03:33;3.25;;;2.95;;
67378;SDS011;54262;44.642;-0.974;2023-12-07T00:05:58;4.75;;;3.25;;
67378;SDS011;54262;44.642;-0.974;2023-12-07T00:08:24;4.20;;;3.80;;
67378;SDS011;54262;44.642;-0.974;2023-12-07T00:10:50;3.47;;;3.25;;
67378;SDS011;54262;44.642;-0.974;2023-12-07T00:13:15;3.72;;;3.42;;
67378;SDS011;54262;44.642;-0.974;2023-12-07T00:15:41;4.60;;;3.47;;
67378;SDS011;54262;44.642;-0.974;2023-12-07T00:18:07;3.80;;;3.38;;
67378;SDS011;54262;44.642;-0.974;2023-12-07T00:20:33;3.08;;;2.88;;
67378;SDS011;54262;44.642;-0.974;2023-12-07T00:22:58;3.92;;;3.63;;
67378;SDS011;54262;44.642;-0.974;2023-12-07T00:25:24;5.30;;;3.83;;
67378;SDS011;54262;44.642;-0.974;2023-12-07T00:27:52;4.30;;;3.33;;
67378;SDS011;54262;44.642;-0.974;2023-12-07T00:30:18;3.70;;;3.40;;
67378;SDS011;54262;44.642;-0.974;2023-12-07T00:32:43;4.15;;;3.85;;
67378;SDS011;54262;44.642;-0.974;2023-12-07T00:35:11;3.45;;;3.25;;
67378;SDS011;54262;44.642;-0.974;2023-12-07T00:37:37;8.07;;;3.33;;
67378;SDS011;54262;44.642;-0.974;2023-12-07T00:40:03;4.30;;;3.55;;
67378;SDS011;54262;44.642;-0.974;2023-12-07T00:42:29;3.47;;;3.28;;
67378;SDS011;54262;44.642;-0.974;2023-12-07T00:44:55;3.25;;;2.95;;
67378;SDS011;54262;44.642;-0.974;2023-12-07T00:47:22;3.40;;;3.10;;
67378;SDS011;54262;44.642;-0.974;2023-12-07T00:49:48;3.05;;;2.75;;
67378;SDS011;54262;44.642;-0.974;2023-12-07T00:52:16;5.50;;;3.40;;
67378;SDS011;54262;44.642;-0.974;2023-12-07T00:54:42;3.42;;;3.13;;
67378;SDS011;54262;44.642;-0.974;2023-12-07T00:57:08;3.50;;;3.00;;
67378;SDS011;54262;44.642;-0.974;2023-12-07T00:59:33;4.55;;;3.33;;
67378;SDS011;54262;44.642;-0.974;2023-12-07T01:02:02;3.08;;;2.88;;
67378;SDS011;54262;44.642;-0.974;2023-12-07T01:04:29;3.67;;;3.38;;
67378;SDS011;54262;44.642;-0.974;2023-12-07T01:06:56;3.60;;;3.30;;
67378;SDS011;54262;44.642;-0.974;2023-12-07T01:09:22;3.75;;;3.22;;
67378;SDS011;54262;44.642;-0.974;2023-12-07T01:11:48;3.53;;;3.22;;
67378;SDS011;54262;44.642;-0.974;2023-12-07T01:14:14;3.40;;;2.47;;
67378;SDS011;54262;44.642;-0.974;2023-12-07T01:16:40;3.65;;;3.35;;
67378;SDS011;54262;44.642;-0.974;2023-12-07T01:19:06;4.03;;;3.63;;
67378;SDS011;54262;44.642;-0.974;2023-12-07T01:21:32;3.22;;;2.95;;
67378;SDS011;54262;44.642;-0.974;2023-12-07T01:24:01;3.85;;;2.90;;
67378;SDS011;54262;44.642;-0.974;2023-12-07T01:26:27;4.15;;;2.92;;
67378;SDS011;54262;44.642;-0.974;2023-12-07T01:28:55;2.67;;;2.47;;
67378;SDS011;54262;44.642;-0.974;2023-12-07T01:31:21;2.60;;;2.40;;
67378;SDS011;54262;44.642;-0.974;2023-12-07T01:33:47;2.38;;;2.17;;
67378;SDS011;54262;44.642;-0.974;2023-12-07T01:36:15;2.63;;;2.38;;
67378;SDS011;54262;44.642;-0.974;2023-12-07T01:38:40;3.20;;;2.90;;
67378;SDS011;54262;44.642;-0.974;2023-12-07T01:41:08;3.25;;;2.55;;
67378;SDS011;54262;44.642;-0.974;2023-12-07T01:43:34;2.88;;;2.67;;
67378;SDS011;54262;44.642;-0.974;2023-12-07T01:46:00;2.78;;;2.40;;
67378;SDS011;54262;44.642;-0.974;2023-12-07T01:48:28;2.58;;;2.38;;
67378;SDS011;54262;44.642;-0.974;2023-12-07T01:50:55;2.38;;;2.17;;
67378;SDS011;54262;44.642;-0.974;2023-12-07T01:53:23;3.33;;;2.92;;
67378;SDS011;54262;44.642;-0.974;2023-12-07T01:55:50;3.03;;;2.40;;
67378;SDS011;54262;44.642;-0.974;2023-12-07T01:58:17;2.78;;;2.38;;
67378;SDS011;54262;44.642;-0.974;2023-12-07T02:00:44;3.38;;;2.78;;
67378;SDS011;54262;44.642;-0.974;2023-12-07T02:03:11;2.08;;;1.90;;
67378;SDS011;54262;44.642;-0.974;2023-12-07T02:05:37;4.53;;;2.85;;
67378;SDS011;54262;44.642;-0.974;2023-12-07T02:08:08;3.95;;;2.47;;
67378;SDS011;54262;44.642;-0.974;2023-12-07T02:10:33;2.55;;;2.35;;
67378;SDS011;54262;44.642;-0.974;2023-12-07T02:12:59;2.97;;;2.33;;
67378;SDS011;54262;44.642;-0.974;2023-12-07T02:15:25;4.13;;;2.40;;
67378;SDS011;54262;44.642;-0.974;2023-12-07T02:20:44;2.50;;;2.30;;
67378;SDS011;54262;44.642;-0.974;2023-12-07T02:23:17;3.17;;;1.92;;
67378;SDS011;54262;44.642;-0.974;2023-12-07T02:28:56;5.63;;;2.65;;
67378;SDS011;54262;44.642;-0.974;2023-12-07T02:31:21;2.95;;;2.63;;
67378;SDS011;54262;44.642;-0.974;2023-12-07T02:33:48;2.70;;;2.10;;
67378;SDS011;54262;44.642;-0.974;2023-12-07T02:36:16;3.97;;;2.38;;
67378;SDS011;54262;44.642;-0.974;2023-12-07T02:38:47;2.50;;;2.08;;
67378;SDS011;54262;44.642;-0.974;2023-12-07T02:41:15;2.75;;;2.55;;
67378;SDS011;54262;44.642;-0.974;2023-12-07T02:43:42;2.20;;;2.00;;
67378;SDS011;54262;44.642;-0.974;2023-12-07T02:46:08;3.53;;;2.58;;
67378;SDS011;54262;44.642;-0.974;2023-12-07T02:48:34;3.17;;;2.30;;
67378;SDS011;54262;44.642;-0.974;2023-12-07T02:51:00;3.30;;;2.10;;
67378;SDS011;54262;44.642;-0.974;2023-12-07T02:53:25;2.55;;;2.35;;
67378;SDS011;54262;44.642;-0.974;2023-12-07T02:55:51;3.58;;;2.00;;
67378;SDS011;54262;44.642;-0.974;2023-12-07T02:58:17;2.08;;;1.90;;
67378;SDS011;54262;44.642;-0.974;2023-12-07T03:00:42;1.90;;;1.75;;
67378;SDS011;54262;44.642;-0.974;2023-12-07T03:03:08;2.80;;;2.60;;
67378;SDS011;54262;44.642;-0.974;2023-12-07T03:05:34;2.75;;;2.28;;
67378;SDS011;54262;44.642;-0.974;2023-12-07T03:07:59;2.67;;;2.17;;
67378;SDS011;54262;44.642;-0.974;2023-12-07T03:10:25;2.33;;;2.13;;
67378;SDS011;54262;44.642;-0.974;2023-12-07T03:12:50;3.63;;;2.05;;
67378;SDS011;54262;44.642;-0.974;2023-12-07T03:15:16;1.85;;;1.75;;
67378;SDS011;54262;44.642;-0.974;2023-12-07T03:17:42;3.75;;;2.10;;
67378;SDS011;54262;44.642;-0.974;2023-12-07T03:20:08;4.00;;;2.22;;
67378;SDS011;54262;44.642;-0.974;2023-12-07T03:22:35;2.05;;;1.90;;
67378;SDS011;54262;44.642;-0.974;2023-12-07T03:25:01;3.63;;;2.03;;
67378;SDS011;54262;44.642;-0.974;2023-12-07T03:27:26;2.70;;;2.33;;
67378;SDS011;54262;44.642;-0.974;2023-12-07T03:29:55;2.55;;;1.83;;
67378;SDS011;54262;44.642;-0.974;2023-12-07T03:32:21;2.10;;;2.00;;
67378;SDS011;54262;44.642;-0.974;2023-12-07T03:34:46;2.75;;;1.63;;
67378;SDS011;54262;44.642;-0.974;2023-12-07T03:37:15;3.83;;;2.40;;
67378;SDS011;54262;44.642;-0.974;2023-12-07T03:39:40;1.70;;;1.52;;
67378;SDS011;54262;44.642;-0.974;2023-12-07T03:42:06;4.00;;;2.28;;
67378;SDS011;54262;44.642;-0.974;2023-12-07T03:44:32;2.20;;;2.00;;
67378;SDS011;54262;44.642;-0.974;2023-12-07T03:46:58;2.15;;;1.75;;
67378;SDS011;54262;44.642;-0.974;2023-12-07T03:49:23;2.20;;;1.95;;
67378;SDS011;54262;44.642;-0.974;2023-12-07T03:51:49;5.60;;;2.10;;
67378;SDS011;54262;44.642;-0.974;2023-12-07T03:54:14;1.83;;;1.70;;
67378;SDS011;54262;44.642;-0.974;2023-12-07T03:56:40;4.45;;;1.90;;
67378;SDS011;54262;44.642;-0.974;2023-12-07T03:59:09;2.38;;;2.00;;
67378;SDS011;54262;44.642;-0.974;2023-12-07T04:01:34;1.95;;;1.85;;
67378;SDS011;54262;44.642;-0.974;2023-12-07T04:04:00;2.08;;;1.90;;
67378;SDS011;54262;44.642;-0.974;2023-12-07T04:06:26;1.98;;;1.40;;
67378;SDS011;54262;44.642;-0.974;2023-12-07T04:08:52;1.55;;;1.45;;
67378;SDS011;54262;44.642;-0.974;2023-12-07T04:11:18;1.80;;;1.70;;
67378;SDS011;54262;44.642;-0.974;2023-12-07T04:13:43;2.22;;;2.10;;
67378;SDS011;54262;44.642;-0.974;2023-12-07T04:16:09;1.75;;;1.65;;
67378;SDS011;54262;44.642;-0.974;2023-12-07T04:18:36;2.38;;;1.95;;
67378;SDS011;54262;44.642;-0.974;2023-12-07T04:21:01;1.88;;;1.77;;
67378;SDS011;54262;44.642;-0.974;2023-12-07T04:23:28;5.43;;;2.10;;
67378;SDS011;54262;44.642;-0.974;2023-12-07T04:25:53;2.30;;;2.13;;
67378;SDS011;54262;44.642;-0.974;2023-12-07T04:28:19;2.30;;;2.05;;
67378;SDS011;54262;44.642;-0.974;2023-12-07T04:30:47;2.25;;;1.50;;
67378;SDS011;54262;44.642;-0.974;2023-12-07T04:33:13;2.20;;;2.00;;
67378;SDS011;54262;44.642;-0.974;2023-12-07T04:35:39;1.80;;;1.70;;
67378;SDS011;54262;44.642;-0.974;2023-12-07T04:38:07;1.77;;;1.58;;
67378;SDS011;54262;44.642;-0.974;2023-12-07T04:40:32;2.17;;;2.00;;
67378;SDS011;54262;44.642;-0.974;2023-12-07T04:42:58;2.22;;;1.60;;
67378;SDS011;54262;44.642;-0.974;2023-12-07T04:45:24;2.30;;;1.67;;
67378;SDS011;54262;44.642;-0.974;2023-12-07T04:47:49;6.13;;;1.58;;
67378;SDS011;54262;44.642;-0.974;2023-12-07T04:50:15;1.98;;;1.77;;
67378;SDS011;54262;44.642;-0.974;2023-12-07T04:52:41;1.85;;;1.75;;
67378;SDS011;54262;44.642;-0.974;2023-12-07T04:55:07;2.00;;;1.65;;
67378;SDS011;54262;44.642;-0.974;2023-12-07T04:57:33;2.20;;;2.10;;
67378;SDS011;54262;44.642;-0.974;2023-12-07T04:59:59;1.73;;;1.58;;
67378;SDS011;54262;44.642;-0.974;2023-12-07T05:02:25;2.60;;;1.40;;
67378;SDS011;54262;44.642;-0.974;2023-12-07T05:04:52;1.52;;;1.42;;
67378;SDS011;54262;44.642;-0.974;2023-12-07T05:07:19;1.52;;;1.42;;
67378;SDS011;54262;44.642;-0.974;2023-12-07T05:09:45;1.90;;;1.60;;
67378;SDS011;54262;44.642;-0.974;2023-12-07T05:12:10;3.17;;;1.58;;
67378;SDS011;54262;44.642;-0.974;2023-12-07T05:14:36;2.15;;;1.95;;
67378;SDS011;54262;44.642;-0.974;2023-12-07T05:17:02;3.35;;;1.98;;
67378;SDS011;54262;44.642;-0.974;2023-12-07T05:19:28;2.78;;;1.70;;
67378;SDS011;54262;44.642;-0.974;2023-12-07T05:21:53;1.77;;;1.67;;
67378;SDS011;54262;44.642;-0.974;2023-12-07T05:24:19;2.03;;;1.45;;
67378;SDS011;54262;44.642;-0.974;2023-12-07T05:26:45;1.40;;;1.30;;
67378;SDS011;54262;44.642;-0.974;2023-12-07T05:29:12;2.85;;;1.38;;
67378;SDS011;54262;44.642;-0.974;2023-12-07T05:31:40;2.15;;;2.00;;
67378;SDS011;54262;44.642;-0.974;2023-12-07T05:34:06;4.50;;;2.40;;
67378;SDS011;54262;44.642;-0.974;2023-12-07T05:36:32;2.42;;;1.58;;
67378;SDS011;54262;44.642;-0.974;2023-12-07T05:39:00;2.10;;;2.00;;
67378;SDS011;54262;44.642;-0.974;2023-12-07T05:41:26;1.92;;;1.83;;
67378;SDS011;54262;44.642;-0.974;2023-12-07T05:43:52;2.63;;;2.00;;
67378;SDS011;54262;44.642;-0.974;2023-12-07T05:46:18;2.08;;;1.90;;
67378;SDS011;54262;44.642;-0.974;2023-12-07T05:48:44;3.53;;;2.28;;
67378;SDS011;54262;44.642;-0.974;2023-12-07T05:51:13;1.90;;;1.67;;
67378;SDS011;54262;44.642;-0.974;2023-12-07T05:53:40;1.63;;;1.40;;
67378;SDS011;54262;44.642;-0.974;2023-12-07T05:56:06;1.75;;;1.65;;
67378;SDS011;54262;44.642;-0.974;2023-12-07T05:58:32;2.92;;;1.98;;
67378;SDS011;54262;44.642;-0.974;2023-12-07T06:00:58;3.30;;;1.92;;
67378;SDS011;54262;44.642;-0.974;2023-12-07T06:03:25;1.42;;;1.30;;
67378;SDS011;54262;44.642;-0.974;2023-12-07T06:05:51;1.75;;;1.65;;
67378;SDS011;54262;44.642;-0.974;2023-12-07T06:08:17;1.52;;;1.42;;
67378;SDS011;54262;44.642;-0.974;2023-12-07T06:10:46;2.08;;;1.98;;
67378;SDS011;54262;44.642;-0.974;2023-12-07T06:13:12;2.25;;;2.13;;
67378;SDS011;54262;44.642;-0.974;2023-12-07T06:15:38;2.47;;;2.17;;
67378;SDS011;54262;44.642;-0.974;2023-12-07T06:18:04;2.47;;;1.70;;
67378;SDS011;54262;44.642;-0.974;2023-12-07T06:20:30;1.88;;;1.77;;
67378;SDS011;54262;44.642;-0.974;2023-12-07T06:22:56;2.13;;;2.03;;
67378;SDS011;54262;44.642;-0.974;2023-12-07T06:25:22;2.75;;;1.77;;
67378;SDS011;54262;44.642;-0.974;2023-12-07T06:27:48;2.13;;;1.95;;
67378;SDS011;54262;44.642;-0.974;2023-12-07T06:30:14;1.42;;;1.30;;
67378;SDS011;54262;44.642;-0.974;2023-12-07T06:32:42;1.88;;;1.58;;
67378;SDS011;54262;44.642;-0.974;2023-12-07T06:35:08;1.33;;;1.33;;
67378;SDS011;54262;44.642;-0.974;2023-12-07T06:37:37;2.10;;;1.88;;
67378;SDS011;54262;44.642;-0.974;2023-12-07T06:40:05;1.55;;;1.45;;
67378;SDS011;54262;44.642;-0.974;2023-12-07T06:42:34;3.33;;;1.95;;
67378;SDS011;54262;44.642;-0.974;2023-12-07T06:45:00;1.80;;;1.48;;
67378;SDS011;54262;44.642;-0.974;2023-12-07T06:47:29;2.25;;;1.80;;
67378;SDS011;54262;44.642;-0.974;2023-12-07T06:49:55;1.70;;;1.58;;
67378;SDS011;54262;44.642;-0.974;2023-12-07T06:52:21;1.70;;;1.55;;
67378;SDS011;54262;44.642;-0.974;2023-12-07T06:54:47;3.28;;;1.75;;
67378;SDS011;54262;44.642;-0.974;2023-12-07T06:57:13;1.75;;;1.65;;
67378;SDS011;54262;44.642;-0.974;2023-12-07T06:59:38;1.58;;;1.48;;
67378;SDS011;54262;44.642;-0.974;2023-12-07T07:02:06;1.83;;;1.70;;
67378;SDS011;54262;44.642;-0.974;2023-12-07T07:04:31;2.08;;;1.95;;
67378;SDS011;54262;44.642;-0.974;2023-12-07T07:07:00;1.50;;;1.40;;
67378;SDS011;54262;44.642;-0.974;2023-12-07T07:09:26;4.20;;;1.42;;
67378;SDS011;54262;44.642;-0.974;2023-12-07T07:11:51;1.42;;;1.33;;
67378;SDS011;54262;44.642;-0.974;2023-12-07T07:14:18;3.13;;;1.52;;
67378;SDS011;54262;44.642;-0.974;2023-12-07T07:16:44;2.13;;;2.00;;
67378;SDS011;54262;44.642;-0.974;2023-12-07T07:19:10;1.95;;;1.85;;
67378;SDS011;54262;44.642;-0.974;2023-12-07T07:21:36;2.90;;;1.98;;
67378;SDS011;54262;44.642;-0.974;2023-12-07T07:24:01;6.45;;;2.15;;
67378;SDS011;54262;44.642;-0.974;2023-12-07T07:26:27;6.18;;;1.85;;
67378;SDS011;54262;44.642;-0.974;2023-12-07T07:28:53;7.88;;;1.98;;
67378;SDS011;54262;44.642;-0.974;2023-12-07T07:31:18;2.20;;;1.90;;
67378;SDS011;54262;44.642;-0.974;2023-12-07T07:33:47;4.85;;;2.42;;
67378;SDS011;54262;44.642;-0.974;2023-12-07T07:36:13;1.92;;;1.77;;
67378;SDS011;54262;44.642;-0.974;2023-12-07T07:38:42;3.05;;;2.35;;
67378;SDS011;54262;44.642;-0.974;2023-12-07T07:41:10;2.00;;;1.90;;
67378;SDS011;54262;44.642;-0.974;2023-12-07T07:43:39;2.55;;;2.10;;
67378;SDS011;54262;44.642;-0.974;2023-12-07T07:46:05;2.90;;;2.25;;
67378;SDS011;54262;44.642;-0.974;2023-12-07T07:48:31;13.43;;;2.55;;
67378;SDS011;54262;44.642;-0.974;2023-12-07T07:50:57;2.10;;;1.85;;
67378;SDS011;54262;44.642;-0.974;2023-12-07T07:53:23;6.07;;;1.98;;
67378;SDS011;54262;44.642;-0.974;2023-12-07T07:55:49;3.28;;;2.25;;
67378;SDS011;54262;44.642;-0.974;2023-12-07T07:58:15;2.15;;;1.92;;
67378;SDS011;54262;44.642;-0.974;2023-12-07T08:00:40;5.68;;;1.40;;
67378;SDS011;54262;44.642;-0.974;2023-12-07T08:03:07;2.33;;;2.13;;
67378;SDS011;54262;44.642;-0.974;2023-12-07T08:05:33;3.20;;;1.70;;
67378;SDS011;54262;44.642;-0.974;2023-12-07T08:07:59;5.65;;;2.25;;
67378;SDS011;54262;44.642;-0.974;2023-12-07T08:10:24;2.38;;;2.17;;
67378;SDS011;54262;44.642;-0.974;2023-12-07T08:12:50;3.15;;;1.90;;
67378;SDS011;54262;44.642;-0.974;2023-12-07T08:15:16;1.90;;;1.80;;
67378;SDS011;54262;44.642;-0.974;2023-12-07T08:17:41;6.07;;;1.80;;
67378;SDS011;54262;44.642;-0.974;2023-12-07T08:20:10;2.95;;;2.40;;
67378;SDS011;54262;44.642;-0.974;2023-12-07T08:22:38;7.20;;;1.95;;
67378;SDS011;54262;44.642;-0.974;2023-12-07T08:25:04;7.30;;;2.05;;
67378;SDS011;54262;44.642;-0.974;2023-12-07T08:27:33;2.40;;;2.20;;
67378;SDS011;54262;44.642;-0.974;2023-12-07T08:29:59;3.63;;;2.42;;
67378;SDS011;54262;44.642;-0.974;2023-12-07T08:32:25;4.72;;;2.05;;
67378;SDS011;54262;44.642;-0.974;2023-12-07T08:34:54;4.72;;;1.67;;
67378;SDS011;54262;44.642;-0.974;2023-12-07T08:37:19;5.10;;;1.75;;
67378;SDS011;54262;44.642;-0.974;2023-12-07T08:39:45;5.20;;;2.42;;
67378;SDS011;54262;44.642;-0.974;2023-12-07T08:42:13;13.63;;;2.08;;
67378;SDS011;54262;44.642;-0.974;2023-12-07T08:44:39;1.50;;;1.38;;
67378;SDS011;54262;44.642;-0.974;2023-12-07T08:47:04;1.85;;;1.73;;
67378;SDS011;54262;44.642;-0.974;2023-12-07T08:49:30;3.88;;;2.10;;
67378;SDS011;54262;44.642;-0.974;2023-12-07T08:51:56;4.13;;;2.50;;
67378;SDS011;54262;44.642;-0.974;2023-12-07T08:54:22;2.80;;;1.90;;
67378;SDS011;54262;44.642;-0.974;2023-12-07T08:56:48;2.10;;;1.77;;
67378;SDS011;54262;44.642;-0.974;2023-12-07T08:59:14;4.68;;;2.03;;
67378;SDS011;54262;44.642;-0.974;2023-12-07T09:01:39;2.22;;;1.90;;
67378;SDS011;54262;44.642;-0.974;2023-12-07T09:04:05;4.90;;;2.25;;
67378;SDS011;54262;44.642;-0.974;2023-12-07T09:06:31;3.10;;;1.77;;
67378;SDS011;54262;44.642;-0.974;2023-12-07T09:08:56;1.80;;;1.70;;
67378;SDS011;54262;44.642;-0.974;2023-12-07T09:11:22;5.03;;;2.10;;
67378;SDS011;54262;44.642;-0.974;2023-12-07T09:13:48;4.78;;;1.73;;
67378;SDS011;54262;44.642;-0.974;2023-12-07T09:16:14;7.15;;;1.95;;
67378;SDS011;54262;44.642;-0.974;2023-12-07T09:18:40;4.03;;;1.88;;
67378;SDS011;54262;44.642;-0.974;2023-12-07T09:21:07;11.35;;;1.92;;
67378;SDS011;54262;44.642;-0.974;2023-12-07T09:23:33;12.32;;;2.17;;
67378;SDS011;54262;44.642;-0.974;2023-12-07T09:26:00;6.85;;;2.33;;
67378;SDS011;54262;44.642;-0.974;2023-12-07T09:28:26;5.90;;;2.15;;
67378;SDS011;54262;44.642;-0.974;2023-12-07T09:30:51;2.97;;;2.28;;
67378;SDS011;54262;44.642;-0.974;2023-12-07T09:33:17;5.85;;;2.33;;
67378;SDS011;54262;44.642;-0.974;2023-12-07T09:35:45;3.53;;;1.77;;
67378;SDS011;54262;44.642;-0.974;2023-12-07T09:38:11;3.00;;;2.10;;
67378;SDS011;54262;44.642;-0.974;2023-12-07T09:40:36;4.07;;;1.60;;
67378;SDS011;54262;44.642;-0.974;2023-12-07T09:43:04;5.30;;;2.58;;
67378;SDS011;54262;44.642;-0.974;2023-12-07T09:45:30;5.07;;;1.95;;
67378;SDS011;54262;44.642;-0.974;2023-12-07T09:47:56;3.85;;;1.80;;
67378;SDS011;54262;44.642;-0.974;2023-12-07T09:50:22;2.85;;;1.80;;
67378;SDS011;54262;44.642;-0.974;2023-12-07T09:52:53;8.55;;;1.73;;
67378;SDS011;54262;44.642;-0.974;2023-12-07T09:55:21;2.70;;;1.90;;
67378;SDS011;54262;44.642;-0.974;2023-12-07T09:57:47;1.85;;;1.75;;
67378;SDS011;54262;44.642;-0.974;2023-12-07T10:00:14;4.57;;;2.05;;
67378;SDS011;54262;44.642;-0.974;2023-12-07T10:02:41;3.50;;;1.65;;
67378;SDS011;54262;44.642;-0.974;2023-12-07T10:05:10;2.30;;;2.10;;
67378;SDS011;54262;44.642;-0.974;2023-12-07T10:07:41;2.10;;;1.75;;
67378;SDS011;54262;44.642;-0.974;2023-12-07T10:10:22;1.75;;;1.65;;
67378;SDS011;54262;44.642;-0.974;2023-12-07T10:12:51;2.42;;;2.17;;
67378;SDS011;54262;44.642;-0.974;2023-12-07T10:15:18;5.03;;;1.75;;
67378;SDS011;54262;44.642;-0.974;2023-12-07T10:20:18;4.28;;;1.60;;
67378;SDS011;54262;44.642;-0.974;2023-12-07T10:22:48;1.73;;;1.63;;
67378;SDS011;54262;44.642;-0.974;2023-12-07T10:25:29;3.28;;;1.55;;
67378;SDS011;54262;44.642;-0.974;2023-12-07T10:28:02;3.35;;;2.17;;
67378;SDS011;54262;44.642;-0.974;2023-12-07T10:30:36;2.17;;;1.97;;
67378;SDS011;54262;44.642;-0.974;2023-12-07T10:33:06;2.13;;;2.00;;
67378;SDS011;54262;44.642;-0.974;2023-12-07T10:35:32;3.33;;;1.98;;
67378;SDS011;54262;44.642;-0.974;2023-12-07T10:38:05;2.72;;;1.70;;
67378;SDS011;54262;44.642;-0.974;2023-12-07T10:40:31;1.88;;;1.67;;
67378;SDS011;54262;44.642;-0.974;2023-12-07T10:42:57;1.90;;;1.80;;
67378;SDS011;54262;44.642;-0.974;2023-12-07T10:45:25;2.90;;;2.00;;
67378;SDS011;54262;44.642;-0.974;2023-12-07T10:47:54;2.10;;;1.90;;
67378;SDS011;54262;44.642;-0.974;2023-12-07T10:50:36;2.38;;;1.90;;
67378;SDS011;54262;44.642;-0.974;2023-12-07T10:56:01;2.30;;;2.20;;
67378;SDS011;54262;44.642;-0.974;2023-12-07T10:58:27;5.53;;;2.35;;
67378;SDS011;54262;44.642;-0.974;2023-12-07T11:00:53;2.50;;;2.03;;
67378;SDS011;54262;44.642;-0.974;2023-12-07T11:03:19;1.92;;;1.75;;
67378;SDS011;54262;44.642;-0.974;2023-12-07T11:05:46;3.05;;;1.92;;
67378;SDS011;54262;44.642;-0.974;2023-12-07T11:08:15;2.42;;;1.65;;
67378;SDS011;54262;44.642;-0.974;2023-12-07T11:10:43;2.55;;;2.20;;
67378;SDS011;54262;44.642;-0.974;2023-12-07T11:13:26;1.50;;;1.40;;
67378;SDS011;54262;44.642;-0.974;2023-12-07T11:15:55;1.83;;;1.73;;
67378;SDS011;54262;44.642;-0.974;2023-12-07T11:18:24;2.40;;;1.48;;
67378;SDS011;54262;44.642;-0.974;2023-12-07T11:20:50;2.17;;;1.60;;
67378;SDS011;54262;44.642;-0.974;2023-12-07T11:23:18;1.73;;;1.65;;
67378;SDS011;54262;44.642;-0.974;2023-12-07T11:25:45;1.48;;;1.38;;
67378;SDS011;54262;44.642;-0.974;2023-12-07T11:28:11;1.70;;;1.60;;
67378;SDS011;54262;44.642;-0.974;2023-12-07T11:30:38;1.70;;;1.60;;
67378;SDS011;54262;44.642;-0.974;2023-12-07T11:33:07;2.80;;;2.05;;
67378;SDS011;54262;44.642;-0.974;2023-12-07T11:36:02;2.13;;;1.38;;
67378;SDS011;54262;44.642;-0.974;2023-12-07T11:38:36;2.05;;;1.40;;
67378;SDS011;54262;44.642;-0.974;2023-12-07T11:41:02;2.85;;;1.48;;
67378;SDS011;54262;44.642;-0.974;2023-12-07T11:46:06;1.92;;;1.25;;
67378;SDS011;54262;44.642;-0.974;2023-12-07T11:48:35;1.60;;;1.50;;
67378;SDS011;54262;44.642;-0.974;2023-12-07T11:53:34;2.50;;;1.25;;
67378;SDS011;54262;44.642;-0.974;2023-12-07T11:56:01;2.60;;;1.52;;
67378;SDS011;54262;44.642;-0.974;2023-12-07T11:58:29;1.50;;;1.40;;
67378;SDS011;54262;44.642;-0.974;2023-12-07T12:00:56;3.38;;;1.23;;
67378;SDS011;54262;44.642;-0.974;2023-12-07T12:03:23;1.38;;;1.27;;
67378;SDS011;54262;44.642;-0.974;2023-12-07T12:05:49;3.75;;;1.20;;
67378;SDS011;54262;44.642;-0.974;2023-12-07T12:08:18;2.00;;;1.90;;
67378;SDS011;54262;44.642;-0.974;2023-12-07T12:10:45;2.50;;;1.85;;
67378;SDS011;54262;44.642;-0.974;2023-12-07T12:13:12;2.40;;;1.42;;
67378;SDS011;54262;44.642;-0.974;2023-12-07T12:15:38;5.60;;;1.45;;
67378;SDS011;54262;44.642;-0.974;2023-12-07T12:18:05;1.95;;;1.85;;
67378;SDS011;54262;44.642;-0.974;2023-12-07T12:20:31;1.55;;;1.45;;
67378;SDS011;54262;44.642;-0.974;2023-12-07T12:22:58;1.65;;;1.55;;
67378;SDS011;54262;44.642;-0.974;2023-12-07T12:25:25;2.40;;;2.08;;
67378;SDS011;54262;44.642;-0.974;2023-12-07T12:27:53;2.10;;;1.73;;
67378;SDS011;54262;44.642;-0.974;2023-12-07T12:30:21;1.90;;;1.70;;
67378;SDS011;54262;44.642;-0.974;2023-12-07T12:32:50;2.95;;;1.50;;
67378;SDS011;54262;44.642;-0.974;2023-12-07T12:35:17;5.40;;;4.22;;
67378;SDS011;54262;44.642;-0.974;2023-12-07T12:37:46;3.90;;;3.33;;
67378;SDS011;54262;44.642;-0.974;2023-12-07T12:40:16;2.60;;;2.47;;
67378;SDS011;54262;44.642;-0.974;2023-12-07T12:42:46;3.05;;;1.90;;
67378;SDS011;54262;44.642;-0.974;2023-12-07T12:45:13;4.03;;;1.92;;
67378;SDS011;54262;44.642;-0.974;2023-12-07T12:47:43;1.88;;;1.77;;
67378;SDS011;54262;44.642;-0.974;2023-12-07T12:50:13;1.63;;;1.52;;
67378;SDS011;54262;44.642;-0.974;2023-12-07T12:53:03;2.05;;;1.90;;
67378;SDS011;54262;44.642;-0.974;2023-12-07T12:55:30;2.78;;;1.90;;
67378;SDS011;54262;44.642;-0.974;2023-12-07T12:58:03;1.98;;;1.88;;
67378;SDS011;54262;44.642;-0.974;2023-12-07T13:00:32;1.90;;;1.80;;
67378;SDS011;54262;44.642;-0.974;2023-12-07T13:03:02;2.45;;;2.25;;
67378;SDS011;54262;44.642;-0.974;2023-12-07T13:05:29;2.30;;;2.13;;
67378;SDS011;54262;44.642;-0.974;2023-12-07T13:07:57;5.22;;;1.92;;
67378;SDS011;54262;44.642;-0.974;2023-12-07T13:10:24;2.70;;;2.50;;
67378;SDS011;54262;44.642;-0.974;2023-12-07T13:12:50;1.70;;;1.60;;
67378;SDS011;54262;44.642;-0.974;2023-12-07T13:15:16;2.95;;;2.20;;
67378;SDS011;54262;44.642;-0.974;2023-12-07T13:17:42;2.40;;;2.17;;
67378;SDS011;54262;44.642;-0.974;2023-12-07T13:20:09;3.15;;;2.25;;
67378;SDS011;54262;44.642;-0.974;2023-12-07T13:22:41;7.22;;;1.90;;
67378;SDS011;54262;44.642;-0.974;2023-12-07T13:25:10;5.60;;;2.47;;
67378;SDS011;54262;44.642;-0.974;2023-12-07T13:27:37;5.32;;;2.33;;
67378;SDS011;54262;44.642;-0.974;2023-12-07T13:30:03;3.92;;;2.28;;
67378;SDS011;54262;44.642;-0.974;2023-12-07T13:32:35;5.28;;;2.00;;
67378;SDS011;54262;44.642;-0.974;2023-12-07T13:35:07;5.03;;;2.67;;
67378;SDS011;54262;44.642;-0.974;2023-12-07T13:37:35;3.83;;;2.65;;
67378;SDS011;54262;44.642;-0.974;2023-12-07T13:40:02;2.25;;;1.90;;
67378;SDS011;54262;44.642;-0.974;2023-12-07T13:42:31;3.60;;;2.17;;
67378;SDS011;54262;44.642;-0.974;2023-12-07T13:44:57;3.00;;;2.80;;
67378;SDS011;54262;44.642;-0.974;2023-12-07T13:47:27;3.13;;;2.08;;
67378;SDS011;54262;44.642;-0.974;2023-12-07T13:50:01;5.53;;;2.22;;
67378;SDS011;54262;44.642;-0.974;2023-12-07T13:52:28;3.72;;;2.22;;
67378;SDS011;54262;44.642;-0.974;2023-12-07T13:54:55;7.20;;;2.67;;
67378;SDS011;54262;44.642;-0.974;2023-12-07T13:57:21;10.38;;;2.42;;
67378;SDS011;54262;44.642;-0.974;2023-12-07T13:59:51;3.58;;;2.20;;
67378;SDS011;54262;44.642;-0.974;2023-12-07T14:02:20;2.47;;;2.25;;
67378;SDS011;54262;44.642;-0.974;2023-12-07T14:04:46;9.02;;;2.15;;
67378;SDS011;54262;44.642;-0.974;2023-12-07T14:07:15;3.22;;;2.22;;
67378;SDS011;54262;44.642;-0.974;2023-12-07T14:09:43;2.70;;;2.42;;
67378;SDS011;54262;44.642;-0.974;2023-12-07T14:12:11;5.30;;;2.90;;
67378;SDS011;54262;44.642;-0.974;2023-12-07T14:14:41;3.28;;;1.90;;
67378;SDS011;54262;44.642;-0.974;2023-12-07T14:17:08;5.93;;;2.50;;
67378;SDS011;54262;44.642;-0.974;2023-12-07T14:19:34;1.90;;;1.70;;
67378;SDS011;54262;44.642;-0.974;2023-12-07T14:22:00;5.57;;;2.78;;
67378;SDS011;54262;44.642;-0.974;2023-12-07T14:24:26;3.20;;;2.17;;
67378;SDS011;54262;44.642;-0.974;2023-12-07T14:26:52;7.10;;;2.92;;
67378;SDS011;54262;44.642;-0.974;2023-12-07T14:29:19;3.53;;;2.10;;
67378;SDS011;54262;44.642;-0.974;2023-12-07T14:31:46;6.10;;;2.75;;
67378;SDS011;54262;44.642;-0.974;2023-12-07T14:34:13;4.05;;;3.75;;
67378;SDS011;54262;44.642;-0.974;2023-12-07T14:36:40;3.22;;;2.70;;
67378;SDS011;54262;44.642;-0.974;2023-12-07T14:39:07;6.88;;;2.90;;
67378;SDS011;54262;44.642;-0.974;2023-12-07T14:41:33;5.47;;;2.10;;
67378;SDS011;54262;44.642;-0.974;2023-12-07T14:44:01;3.13;;;2.50;;
67378;SDS011;54262;44.642;-0.974;2023-12-07T14:46:27;3.25;;;2.40;;
67378;SDS011;54262;44.642;-0.974;2023-12-07T14:48:55;5.00;;;2.55;;